| time (UTC) | temp F | wind direction | speed knots | gust knots | rain 1hr in | rain 24hr in | rain mn in | humidity % | barometer mb |
| 20260510141541 | 65 | 98 | 2.6 | 10.4 | 0.00 | 0.00 | 0.00 | 71 | 1018.6 |
| 20260510140040 | 65 | 165 | 2.6 | 8.7 | 0.00 | 0.00 | 0.00 | 70 | 1018.4 |
| 20260510134556 | 64 | 178 | 3.5 | 9.6 | 0.00 | 0.00 | 0.00 | 70 | 1018.1 |
| 20260510133045 | 64 | 171 | 2.6 | 7.0 | 0.00 | 0.00 | 0.00 | 71 | 1017.9 |
| 20260510131541 | 63 | 161 | 3.5 | 13.9 | 0.00 | 0.00 | 0.00 | 72 | 1017.6 |
| 20260510130041 | 62 | 138 | 2.6 | 7.8 | 0.00 | 0.00 | 0.00 | 75 | 1017.3 |
| 20260510124546 | 61 | 157 | 1.7 | 7.0 | 0.00 | 0.00 | 0.00 | 77 | 1017.0 |
| 20260510123048 | 61 | 159 | 0.0 | 6.1 | 0.00 | 0.00 | 0.00 | 79 | 1016.8 |
| 20260510121546 | 60 | 0 | 0.9 | 5.2 | 0.00 | 0.00 | 0.00 | 81 | 1016.6 |
| 20260510120046 | 59 | 155 | 0.9 | 6.1 | 0.00 | 0.00 | 0.00 | 83 | 1016.4 |
| 20260510114542 | 57 | 0 | 0.0 | 4.3 | 0.00 | 0.00 | 0.00 | 88 | 1016.3 |
| 20260510113041 | 55 | 0 | 0.0 | 0.9 | 0.00 | 0.00 | 0.00 | 91 | 1015.8 |
| 20260510111553 | 55 | 0 | 0.0 | 1.7 | 0.00 | 0.00 | 0.00 | 91 | 1015.5 |
| 20260510110040 | 55 | 0 | 0.0 | 0.0 | 0.00 | 0.00 | 0.00 | 91 | 1015.4 |
| 20260510104605 | 55 | 0 | 0.0 | 1.7 | 0.00 | 0.00 | 0.00 | 91 | 1015.3 |
| 20260510103045 | 54 | 0 | 0.0 | 0.0 | 0.00 | 0.00 | 0.00 | 92 | 1015.4 |
| 20260510101542 | 55 | 0 | 0.0 | 0.9 | 0.00 | 0.00 | 0.00 | 92 | 1015.3 |
| 20260510100041 | 55 | 0 | 0.0 | 0.9 | 0.00 | 0.00 | 0.00 | 92 | 1015.0 |
| 20260510094542 | 55 | 0 | 0.0 | 0.9 | 0.00 | 0.00 | 0.00 | 91 | 1014.9 |
| 20260510093040 | 55 | 0 | 0.0 | 0.9 | 0.00 | 0.00 | 0.00 | 91 | 1014.8 |
| 20260510091539 | 55 | 0 | 0.0 | 0.9 | 0.00 | 0.00 | 0.00 | 91 | 1014.4 |
| 20260510090036 | 55 | 0 | 0.0 | 0.9 | 0.00 | 0.00 | 0.00 | 90 | 1014.5 |
| 20260510084543 | 56 | 0 | 0.0 | 0.0 | 0.00 | 0.00 | 0.00 | 90 | 1014.3 |
| 20260510083041 | 56 | 0 | 0.0 | 0.9 | 0.00 | 0.00 | 0.00 | 90 | 1014.0 |
| 20260510081543 | 56 | 0 | 0.0 | 1.7 | 0.00 | 0.00 | 0.00 | 89 | 1013.9 |
| 20260510080039 | 55 | 0 | 0.9 | 2.6 | 0.00 | 0.00 | 0.00 | 90 | 1014.4 |
| 20260510074540 | 55 | 0 | 0.0 | 0.0 | 0.00 | 0.00 | 0.00 | 90 | 1014.4 |
| 20260510073044 | 55 | 0 | 0.0 | 0.9 | 0.00 | 0.00 | 0.00 | 88 | 1014.2 |
| 20260510071542 | 56 | 227 | 0.0 | 0.9 | 0.00 | 0.00 | 0.00 | 87 | 1014.0 |
| 20260510070044 | 57 | 0 | 0.0 | 0.9 | 0.00 | 0.00 | 0.00 | 86 | 1013.9 |
| 20260510064540 | 58 | 0 | 0.0 | 0.9 | 0.00 | 0.00 | 0.00 | 84 | 1013.8 |
| 20260510063041 | 58 | 0 | 0.0 | 0.9 | 0.00 | 0.00 | 0.00 | 84 | 1014.0 |
| 20260510061541 | 58 | 0 | 0.9 | 3.5 | 0.00 | 0.00 | 0.00 | 85 | 1014.2 |
| 20260510060133 | 56 | 0 | 0.0 | 0.9 | 0.00 | 0.00 | 0.00 | 88 | 1014.0 |
| 20260510054541 | 57 | 0 | 0.0 | 0.0 | 0.00 | 0.00 | 0.00 | 87 | 1013.8 |
| 20260510053042 | 57 | 0 | 0.0 | 0.0 | 0.00 | 0.00 | 0.00 | 87 | 1013.8 |
| 20260510051559 | 58 | 0 | 0.0 | 1.7 | 0.00 | 0.00 | 0.00 | 87 | 1013.9 |
| 20260510050042 | 58 | 333 | 0.0 | 0.9 | 0.00 | 0.00 | 0.00 | 87 | 1013.5 |
| 20260510044544 | 58 | 0 | 0.0 | 0.0 | 0.00 | 0.00 | 0.00 | 86 | 1013.4 |
| 20260510043102 | 58 | 0 | 0.0 | 0.0 | 0.00 | 0.00 | 0.00 | 85 | 1013.5 |
| 20260510041550 | 58 | 0 | 0.0 | 2.6 | 0.00 | 0.00 | 0.00 | 85 | 1013.4 |
| 20260510040043 | 59 | 0 | 0.0 | 0.9 | 0.00 | 0.00 | 0.00 | 83 | 1013.2 |
| 20260510034544 | 59 | 0 | 0.0 | 0.9 | 0.00 | 0.00 | 0.00 | 83 | 1013.1 |
| 20260510033050 | 60 | 0 | 0.0 | 3.5 | 0.00 | 0.00 | 0.00 | 81 | 1013.1 |
| 20260510031608 | 60 | 0 | 0.0 | 0.0 | 0.00 | 0.00 | 0.00 | 78 | 1012.8 |
| 20260510030044 | 61 | 0 | 0.0 | 0.0 | 0.00 | 0.00 | 0.00 | 75 | 1012.5 |
| 20260510024545 | 63 | 0 | 0.0 | 0.0 | 0.00 | 0.00 | 0.00 | 74 | 1012.3 |
| 20260510023048 | 64 | 0 | 0.0 | 0.0 | 0.00 | 0.00 | 0.00 | 70 | 1011.9 |
| 20260510021544 | 65 | 0 | 0.0 | 0.0 | 0.00 | 0.00 | 0.00 | 68 | 1011.7 |
| 20260510020042 | 67 | 0 | 0.0 | 0.0 | 0.00 | 0.00 | 0.00 | 66 | 1011.4 |
| 20260510014544 | 68 | 0 | 0.0 | 0.0 | 0.00 | 0.00 | 0.00 | 66 | 1011.1 |
| 20260510013043 | 70 | 0 | 0.0 | 0.0 | 0.00 | 0.00 | 0.00 | 62 | 1010.9 |
| 20260510011554 | 72 | 0 | 0.0 | 0.0 | 0.00 | 0.00 | 0.00 | 58 | 1010.8 |
| 20260510010050 | 74 | 0 | 0.0 | 0.0 | 0.00 | 0.00 | 0.00 | 52 | 1010.7 |
| 20260510004540 | 77 | 0 | 0.0 | 0.9 | 0.00 | 0.00 | 0.00 | 46 | 1010.3 |
| 20260510003041 | 78 | 0 | 0.0 | 1.7 | 0.00 | 0.00 | 0.00 | 42 | 1010.3 |
| 20260510001544 | 79 | 0 | 0.0 | 2.6 | 0.00 | 0.00 | 0.00 | 40 | 1010.4 |
| 20260510000049 | 79 | 0 | 0.0 | 4.3 | 0.00 | 0.00 | 0.00 | 37 | 1010.3 |
| 20260509234542 | 80 | 5 | 0.9 | 3.5 | 0.00 | 0.01 | 0.00 | 35 | 1010.2 |
| 20260509233041 | 80 | 9 | 1.7 | 3.5 | 0.00 | 0.01 | 0.00 | 36 | 1010.2 |
| 20260509231546 | 81 | 51 | 1.7 | 4.3 | 0.00 | 0.01 | 0.00 | 35 | 1010.3 |
| 20260509230039 | 80 | 327 | 0.9 | 7.8 | 0.00 | 0.01 | 0.00 | 37 | 1010.2 |
| 20260509224544 | 81 | 331 | 2.6 | 10.4 | 0.00 | 0.01 | 0.00 | 36 | 1010.2 |
| 20260509223044 | 82 | 318 | 1.7 | 3.5 | 0.00 | 0.01 | 0.00 | 34 | 1010.2 |
| 20260509221543 | 83 | 163 | 0.0 | 3.5 | 0.00 | 0.01 | 0.00 | 32 | 1010.3 |
| 20260509220046 | 83 | 0 | 0.9 | 3.5 | 0.00 | 0.01 | 0.00 | 34 | 1010.4 |
| 20260509214541 | 82 | 0 | 0.0 | 4.3 | 0.00 | 0.01 | 0.00 | 32 | 1010.3 |
| 20260509213057 | 82 | 24 | 2.6 | 5.2 | 0.00 | 0.01 | 0.00 | 32 | 1010.4 |
| 20260509211606 | 83 | 88 | 0.9 | 5.2 | 0.00 | 0.01 | 0.00 | 32 | 1010.4 |
| 20260509210038 | 83 | 114 | 1.7 | 4.3 | 0.00 | 0.01 | 0.00 | 32 | 1010.6 |
| 20260509204557 | 82 | 173 | 1.7 | 7.8 | 0.00 | 0.01 | 0.00 | 33 | 1010.6 |
| 20260509203049 | 83 | 85 | 0.9 | 5.2 | 0.00 | 0.01 | 0.00 | 33 | 1010.7 |
| 20260509201540 | 82 | 0 | 0.9 | 8.7 | 0.00 | 0.01 | 0.00 | 34 | 1011.0 |
| 20260509200041 | 81 | 333 | 1.7 | 7.8 | 0.00 | 0.01 | 0.00 | 31 | 1011.2 |
| 20260509194543 | 82 | 133 | 0.9 | 4.3 | 0.00 | 0.01 | 0.00 | 37 | 1011.4 |
| 20260509193045 | 82 | 81 | 0.9 | 7.8 | 0.00 | 0.01 | 0.00 | 34 | 1011.4 |
| 20260509191542 | 81 | 20 | 1.7 | 6.1 | 0.00 | 0.01 | 0.00 | 33 | 1011.4 |
| 20260509190047 | 81 | 113 | 2.6 | 7.0 | 0.00 | 0.01 | 0.00 | 37 | 1011.4 |
| 20260509184540 | 80 | 303 | 4.3 | 9.6 | 0.00 | 0.01 | 0.00 | 35 | 1011.4 |
| 20260509183041 | 81 | 350 | 3.5 | 7.8 | 0.00 | 0.01 | 0.00 | 39 | 1011.4 |
| 20260509181540 | 80 | 290 | 2.6 | 7.0 | 0.00 | 0.01 | 0.00 | 38 | 1011.4 |
| 20260509180040 | 80 | 107 | 1.7 | 6.1 | 0.00 | 0.01 | 0.00 | 37 | 1011.4 |
| 20260509174541 | 80 | 279 | 1.7 | 7.8 | 0.00 | 0.01 | 0.00 | 36 | 1011.5 |
| 20260509173041 | 80 | 12 | 0.9 | 5.2 | 0.00 | 0.01 | 0.00 | 43 | 1011.5 |
| 20260509171541 | 79 | 0 | 1.7 | 6.1 | 0.00 | 0.01 | 0.00 | 40 | 1011.7 |
| 20260509170041 | 79 | 71 | 1.7 | 6.1 | 0.00 | 0.01 | 0.00 | 41 | 1011.9 |
| 20260509164547 | 79 | 74 | 0.9 | 5.2 | 0.00 | 0.01 | 0.00 | 43 | 1011.7 |
| 20260509163056 | 78 | 159 | 1.7 | 7.8 | 0.00 | 0.01 | 0.00 | 47 | 1011.8 |
| 20260509161542 | 78 | 70 | 0.9 | 7.8 | 0.00 | 0.01 | 0.00 | 49 | 1011.7 |
| 20260509160041 | 77 | 168 | 0.9 | 5.2 | 0.00 | 0.01 | 0.00 | 51 | 1011.7 |
| 20260509154542 | 76 | 103 | 0.9 | 5.2 | 0.00 | 0.01 | 0.00 | 54 | 1011.6 |
| 20260509153038 | 75 | 0 | 0.0 | 3.5 | 0.00 | 0.01 | 0.00 | 57 | 1011.6 |
| 20260509151546 | 73 | 0 | 1.7 | 4.3 | 0.00 | 0.01 | 0.00 | 61 | 1011.6 |
| 20260509150049 | 71 | 0 | 0.9 | 3.5 | 0.00 | 0.01 | 0.00 | 70 | 1011.7 |
| 20260509144544 | 69 | 290 | 1.7 | 3.5 | 0.00 | 0.01 | 0.00 | 77 | 1011.6 |
| 20260509143045 | 68 | 273 | 0.9 | 2.6 | 0.00 | 0.01 | 0.00 | 80 | 1011.6 |